Time;durP1;ratioP1;P1;durP2;ratioP2;P2;SDS_P1;SDS_P2;PMS_P1;PMS_P2;Temp;Humidity;BMP_temperature;BMP_pressure;BME280_temperature;BME280_humidity;BME280_pressure;Samples;Min_cycle;Max_cycle;Signal;HPM_P1;HPM_P2
2021/11/07 00:04:07;;;;;;;27.92;3.53;;;;;;;;;;5090199;28;20067;-59
2021/11/07 00:06:38;;;;;;;24.83;3.30;;;;;;;;;;5095287;28;20067;-60
2021/11/07 00:09:20;;;;;;;40.88;3.78;;;;;;;;;;5092894;28;20092;-60
2021/11/07 00:11:46;;;;;;;22.27;3.35;;;;;;;;;;5091107;28;20040;-60
2021/11/07 00:14:12;;;;;;;35.97;4.05;;;;;;;;;;5093341;28;20050;-60
2021/11/07 00:16:40;;;;;;;22.00;3.70;;;;;;;;;;5091707;28;20111;-60
2021/11/07 00:19:18;;;;;;;26.88;3.78;;;;;;;;;;5092226;28;20505;-60
2021/11/07 00:22:02;;;;;;;22.95;3.78;;;;;;;;;;5093679;28;20023;-59
2021/11/07 00:24:37;;;;;;;34.13;4.10;;;;;;;;;;5090626;28;20116;-60
2021/11/07 00:29:33;;;;;;;43.25;3.83;;;;;;;;;;5092615;28;20140;-60
2021/11/07 00:32:22;;;;;;;27.55;3.60;;;;;;;;;;5089558;28;20027;-60
2021/11/07 00:37:35;;;;;;;21.73;3.17;;;;;;;;;;5097399;28;20423;-59
2021/11/07 00:42:58;;;;;;;25.75;3.95;;;;;;;;;;5089393;28;20078;-60
2021/11/07 00:50:57;;;;;;;21.45;2.72;;;;;;;;;;5093009;28;20090;-60
2021/11/07 00:56:17;;;;;;;39.42;3.75;;;;;;;;;;5092227;28;20035;-60
2021/11/07 01:01:26;;;;;;;26.27;2.55;;;;;;;;;;5095156;28;20139;-60
2021/11/07 01:03:54;;;;;;;25.75;2.75;;;;;;;;;;5094916;28;20020;-61
2021/11/07 01:06:20;;;;;;;25.13;3.67;;;;;;;;;;5092681;28;20042;-60
2021/11/07 01:08:48;;;;;;;28.00;3.42;;;;;;;;;;5092750;28;20056;-60
2021/11/07 01:11:13;;;;;;;26.52;2.83;;;;;;;;;;5098052;28;20440;-60
2021/11/07 01:13:39;;;;;;;37.60;3.80;;;;;;;;;;5093678;28;20417;-60
2021/11/07 01:16:06;;;;;;;34.08;3.53;;;;;;;;;;5094193;28;20040;-60
2021/11/07 01:18:32;;;;;;;30.42;4.28;;;;;;;;;;5094872;28;20096;-59
2021/11/07 01:20:58;;;;;;;32.95;4.18;;;;;;;;;;5099422;28;20062;-59
2021/11/07 01:23:29;;;;;;;38.50;4.43;;;;;;;;;;5094568;28;20098;-59
2021/11/07 01:26:04;;;;;;;24.17;3.33;;;;;;;;;;5093045;28;20422;-60
2021/11/07 01:28:37;;;;;;;35.53;4.63;;;;;;;;;;5094976;28;20067;-60
2021/11/07 01:31:03;;;;;;;23.27;3.60;;;;;;;;;;5100925;28;20040;-60
2021/11/07 01:33:30;;;;;;;24.20;4.63;;;;;;;;;;5095541;28;20028;-58
2021/11/07 01:38:50;;;;;;;18.70;2.30;;;;;;;;;;5093470;28;20039;-61
2021/11/07 01:41:23;;;;;;;29.45;3.90;;;;;;;;;;5100132;28;20174;-59
2021/11/07 01:43:50;;;;;;;29.20;3.08;;;;;;;;;;5095390;28;20061;-58
2021/11/07 01:46:36;;;;;;;37.30;3.38;;;;;;;;;;5093639;28;20067;-59
2021/11/07 01:49:10;;;;;;;34.75;3.58;;;;;;;;;;5096931;28;20055;-60
2021/11/07 01:51:36;;;;;;;31.70;4.47;;;;;;;;;;5093218;28;20039;-59
2021/11/07 01:54:30;;;;;;;37.30;3.53;;;;;;;;;;5091283;28;20038;-60
2021/11/07 01:56:56;;;;;;;25.90;3.10;;;;;;;;;;5096254;28;20121;-59
2021/11/07 01:59:22;;;;;;;34.65;3.35;;;;;;;;;;5093981;28;20529;-59
2021/11/07 02:01:56;;;;;;;51.42;4.68;;;;;;;;;;5095502;28;20034;-59
2021/11/07 02:04:22;;;;;;;21.98;2.75;;;;;;;;;;5094680;28;20533;-58
2021/11/07 02:06:48;;;;;;;42.72;4.03;;;;;;;;;;5097756;28;20039;-59
2021/11/07 02:09:15;;;;;;;25.50;2.88;;;;;;;;;;5090623;28;22348;-59
2021/11/07 02:11:41;;;;;;;33.03;3.63;;;;;;;;;;5095373;28;20027;-59
2021/11/07 02:14:09;;;;;;;29.10;2.70;;;;;;;;;;5099310;28;20103;-59
2021/11/07 02:16:35;;;;;;;24.27;2.95;;;;;;;;;;5092363;28;20028;-59
2021/11/07 02:19:01;;;;;;;22.60;3.10;;;;;;;;;;5093745;28;20035;-58
2021/11/07 02:21:26;;;;;;;36.40;3.67;;;;;;;;;;5090777;28;20020;-59
2021/11/07 02:23:52;;;;;;;33.25;3.53;;;;;;;;;;5097677;28;20031;-58
2021/11/07 02:26:19;;;;;;;35.55;3.70;;;;;;;;;;5093695;28;20108;-59
2021/11/07 02:28:46;;;;;;;41.35;3.70;;;;;;;;;;5094876;28;20505;-60
2021/11/07 02:31:18;;;;;;;32.45;3.85;;;;;;;;;;5092522;28;20036;-59
2021/11/07 02:33:44;;;;;;;42.28;3.67;;;;;;;;;;5094327;28;20024;-59
2021/11/07 02:36:16;;;;;;;24.15;2.75;;;;;;;;;;5091118;28;20040;-59
2021/11/07 02:38:44;;;;;;;35.20;2.55;;;;;;;;;;5089849;28;20036;-59
2021/11/07 02:41:10;;;;;;;37.80;3.25;;;;;;;;;;5093969;28;20165;-59
2021/11/07 02:43:55;;;;;;;26.58;3.53;;;;;;;;;;5099700;28;20020;-60
2021/11/07 02:46:22;;;;;;;36.22;2.88;;;;;;;;;;5076390;28;20040;-59
2021/11/07 02:48:59;;;;;;;61.85;4.30;;;;;;;;;;5093808;28;20094;-60
2021/11/07 02:51:30;;;;;;;24.30;3.08;;;;;;;;;;5091744;28;20028;-60
2021/11/07 02:53:56;;;;;;;32.72;3.35;;;;;;;;;;5093271;28;20024;-60
2021/11/07 02:56:22;;;;;;;24.33;2.72;;;;;;;;;;5092721;28;20046;-58
2021/11/07 02:58:48;;;;;;;22.92;2.65;;;;;;;;;;5076870;28;20032;-59
2021/11/07 03:01:24;;;;;;;39.53;3.08;;;;;;;;;;5091621;28;20106;-59
2021/11/07 03:03:51;;;;;;;29.50;3.30;;;;;;;;;;5089547;28;20111;-59
2021/11/07 03:06:17;;;;;;;26.05;2.92;;;;;;;;;;5094539;28;20600;-60
2021/11/07 03:08:48;;;;;;;30.30;3.33;;;;;;;;;;5096717;28;20055;-59
2021/11/07 03:11:14;;;;;;;32.97;3.88;;;;;;;;;;5093538;28;20028;-60
2021/11/07 03:13:40;;;;;;;24.52;3.15;;;;;;;;;;5096317;28;20024;-59
2021/11/07 03:16:12;;;;;;;46.90;4.28;;;;;;;;;;5092853;28;20104;-59
2021/11/07 03:18:38;;;;;;;30.10;3.30;;;;;;;;;;5093254;28;20103;-59
2021/11/07 03:21:08;;;;;;;24.67;2.30;;;;;;;;;;5090520;28;20115;-59
2021/11/07 03:23:38;;;;;;;16.95;2.33;;;;;;;;;;5092483;28;20119;-60
2021/11/07 03:26:10;;;;;;;20.85;3.00;;;;;;;;;;5092556;28;20051;-60
2021/11/07 03:28:36;;;;;;;43.53;3.60;;;;;;;;;;5094509;28;20031;-60
2021/11/07 03:31:09;;;;;;;34.90;3.70;;;;;;;;;;5090781;28;20055;-59
2021/11/07 03:36:09;;;;;;;28.77;3.20;;;;;;;;;;5092675;28;20123;-59
2021/11/07 03:38:36;;;;;;;30.63;3.20;;;;;;;;;;5093886;28;20110;-59
2021/11/07 03:41:03;;;;;;;38.40;3.95;;;;;;;;;;5091669;28;20043;-59
2021/11/07 03:43:29;;;;;;;33.70;3.30;;;;;;;;;;5096021;28;20103;-59
2021/11/07 03:45:58;;;;;;;38.28;2.78;;;;;;;;;;5096852;28;20114;-59
2021/11/07 03:48:25;;;;;;;42.63;3.20;;;;;;;;;;5094135;28;20122;-59
2021/11/07 03:50:51;;;;;;;41.33;3.38;;;;;;;;;;5093555;28;20145;-60
2021/11/07 03:53:16;;;;;;;36.80;3.05;;;;;;;;;;5093744;28;20140;-59
2021/11/07 03:55:42;;;;;;;22.60;3.03;;;;;;;;;;5091227;28;20610;-59
2021/11/07 03:58:08;;;;;;;42.60;4.47;;;;;;;;;;5094444;28;20043;-59
2021/11/07 04:00:34;;;;;;;39.97;3.45;;;;;;;;;;5093848;28;20219;-59
2021/11/07 04:03:00;;;;;;;36.50;3.50;;;;;;;;;;5081374;28;20028;-59
2021/11/07 04:05:25;;;;;;;28.40;3.20;;;;;;;;;;5074120;28;20028;-59
2021/11/07 04:07:52;;;;;;;43.80;4.47;;;;;;;;;;5091217;28;20051;-59
2021/11/07 04:10:18;;;;;;;20.92;2.70;;;;;;;;;;5093319;28;20032;-59
2021/11/07 04:12:44;;;;;;;28.58;3.30;;;;;;;;;;5091634;28;20032;-59
2021/11/07 04:15:10;;;;;;;32.70;3.65;;;;;;;;;;5090419;28;20405;-59
2021/11/07 04:17:37;;;;;;;31.67;3.38;;;;;;;;;;5091085;28;20566;-60
2021/11/07 04:20:07;;;;;;;39.00;3.63;;;;;;;;;;5093103;28;20679;-59
2021/11/07 04:22:33;;;;;;;37.92;3.17;;;;;;;;;;5088219;28;20028;-59
2021/11/07 04:24:58;;;;;;;32.33;3.90;;;;;;;;;;5074411;28;20393;-60
2021/11/07 04:27:25;;;;;;;40.08;3.55;;;;;;;;;;5092422;28;20035;-60
2021/11/07 04:29:50;;;;;;;31.77;2.88;;;;;;;;;;5090721;28;20060;-59
2021/11/07 04:32:16;;;;;;;45.90;3.40;;;;;;;;;;5094511;28;20032;-59
2021/11/07 04:34:42;;;;;;;38.25;2.72;;;;;;;;;;5091644;28;20510;-59
2021/11/07 04:37:08;;;;;;;30.48;3.85;;;;;;;;;;5094752;28;20413;-59
2021/11/07 04:39:34;;;;;;;35.90;3.47;;;;;;;;;;5071202;28;20043;-59
2021/11/07 04:42:00;;;;;;;37.92;3.85;;;;;;;;;;5089870;28;20027;-59
2021/11/07 04:44:26;;;;;;;36.25;4.10;;;;;;;;;;5091438;28;20036;-59
2021/11/07 04:46:52;;;;;;;46.17;4.15;;;;;;;;;;5090600;28;20054;-59
2021/11/07 04:49:18;;;;;;;33.90;3.67;;;;;;;;;;5100474;28;20078;-59
2021/11/07 04:51:45;;;;;;;33.83;3.33;;;;;;;;;;5090774;28;20460;-59
2021/11/07 04:54:10;;;;;;;34.20;3.33;;;;;;;;;;5093265;28;20141;-59
2021/11/07 04:56:36;;;;;;;38.33;3.78;;;;;;;;;;5090074;28;20506;-59
2021/11/07 04:59:03;;;;;;;31.13;4.32;;;;;;;;;;5090693;28;20028;-61
2021/11/07 05:01:28;;;;;;;33.28;2.95;;;;;;;;;;5092829;28;20113;-59
2021/11/07 05:03:54;;;;;;;44.08;2.60;;;;;;;;;;5091828;28;20491;-59
2021/11/07 05:06:20;;;;;;;38.55;3.60;;;;;;;;;;5091876;28;20039;-59
2021/11/07 05:08:46;;;;;;;38.15;5.22;;;;;;;;;;5085693;28;20399;-59
2021/11/07 05:11:12;;;;;;;38.75;3.13;;;;;;;;;;5089497;28;20032;-59
2021/11/07 05:13:37;;;;;;;39.90;4.28;;;;;;;;;;5093866;28;20035;-60
2021/11/07 05:16:03;;;;;;;32.80;3.53;;;;;;;;;;5095515;28;20463;-60
2021/11/07 05:18:29;;;;;;;41.15;3.55;;;;;;;;;;5096903;28;20046;-61
2021/11/07 05:20:54;;;;;;;43.33;3.58;;;;;;;;;;5091776;28;20058;-59
2021/11/07 05:23:20;;;;;;;28.83;3.15;;;;;;;;;;5092275;28;20113;-59
2021/11/07 05:25:46;;;;;;;38.95;2.65;;;;;;;;;;5096223;28;20031;-59
2021/11/07 05:28:12;;;;;;;43.50;3.65;;;;;;;;;;5093014;28;20502;-60
2021/11/07 05:30:39;;;;;;;23.65;3.35;;;;;;;;;;5094052;28;20306;-60
2021/11/07 05:33:05;;;;;;;27.60;3.30;;;;;;;;;;5094786;28;20474;-60
2021/11/07 05:35:30;;;;;;;23.63;3.03;;;;;;;;;;5087801;28;20039;-59
2021/11/07 05:37:56;;;;;;;30.65;3.40;;;;;;;;;;5094997;28;20509;-60
2021/11/07 05:40:21;;;;;;;35.35;3.42;;;;;;;;;;5076966;28;20031;-60
2021/11/07 05:42:48;;;;;;;30.83;3.28;;;;;;;;;;5092834;28;20024;-60
2021/11/07 05:45:14;;;;;;;41.20;3.08;;;;;;;;;;5097045;28;20491;-59
2021/11/07 05:47:41;;;;;;;19.38;2.30;;;;;;;;;;5095731;28;20099;-59
2021/11/07 05:50:08;;;;;;;24.17;3.40;;;;;;;;;;5102103;27;20028;-60
2021/11/07 05:52:33;;;;;;;38.20;3.58;;;;;;;;;;5097251;28;20027;-59
2021/11/07 05:54:59;;;;;;;28.88;4.25;;;;;;;;;;5095492;28;20084;-59
2021/11/07 05:57:25;;;;;;;26.15;2.47;;;;;;;;;;5098216;28;20072;-59
2021/11/07 05:59:51;;;;;;;27.75;2.47;;;;;;;;;;5092660;28;20452;-59
2021/11/07 06:02:17;;;;;;;41.53;4.68;;;;;;;;;;5093105;28;20105;-60
2021/11/07 06:04:43;;;;;;;34.65;4.32;;;;;;;;;;5096038;28;20047;-59
2021/11/07 06:07:09;;;;;;;33.55;3.50;;;;;;;;;;5089929;28;20036;-60
2021/11/07 06:09:35;;;;;;;28.40;3.95;;;;;;;;;;5096061;28;20070;-59
2021/11/07 06:12:01;;;;;;;24.80;2.10;;;;;;;;;;5097391;28;20024;-60
2021/11/07 06:14:27;;;;;;;30.00;3.70;;;;;;;;;;5095922;28;20032;-59
2021/11/07 06:16:53;;;;;;;31.77;3.83;;;;;;;;;;5102098;28;20031;-59
2021/11/07 06:19:19;;;;;;;20.80;3.22;;;;;;;;;;5093400;28;20500;-59
2021/11/07 06:21:46;;;;;;;27.00;3.65;;;;;;;;;;5099450;27;20042;-58
2021/11/07 06:24:14;;;;;;;43.17;5.47;;;;;;;;;;5096986;28;20051;-59
2021/11/07 06:26:40;;;;;;;29.55;4.07;;;;;;;;;;5092930;28;20440;-60
2021/11/07 06:29:05;;;;;;;41.88;3.85;;;;;;;;;;5097523;28;20031;-59
2021/11/07 06:31:31;;;;;;;47.40;3.45;;;;;;;;;;5096278;28;20051;-59
2021/11/07 06:33:56;;;;;;;43.63;3.92;;;;;;;;;;5095973;28;20509;-59
2021/11/07 06:36:22;;;;;;;28.85;3.47;;;;;;;;;;5094912;28;20402;-59
2021/11/07 06:38:48;;;;;;;36.72;3.63;;;;;;;;;;5100156;28;20425;-59
2021/11/07 06:41:13;;;;;;;21.70;3.22;;;;;;;;;;5076333;28;20367;-59
2021/11/07 06:43:39;;;;;;;26.60;2.72;;;;;;;;;;5077519;28;20044;-60
2021/11/07 06:46:04;;;;;;;31.48;3.83;;;;;;;;;;5096867;28;20034;-59
2021/11/07 06:48:30;;;;;;;30.23;2.60;;;;;;;;;;5081988;28;20038;-60
2021/11/07 06:50:56;;;;;;;26.90;2.47;;;;;;;;;;5089724;28;20035;-59
2021/11/07 06:53:23;;;;;;;33.50;3.20;;;;;;;;;;5095935;28;20118;-61
2021/11/07 06:55:49;;;;;;;36.72;3.20;;;;;;;;;;5092543;28;20184;-58
2021/11/07 06:58:14;;;;;;;30.05;3.40;;;;;;;;;;5089741;28;20550;-59
2021/11/07 07:00:40;;;;;;;30.67;2.40;;;;;;;;;;5095715;28;20165;-58
2021/11/07 07:03:06;;;;;;;34.38;3.72;;;;;;;;;;5091165;28;20110;-59
2021/11/07 07:05:32;;;;;;;16.95;1.88;;;;;;;;;;5090158;28;20036;-59
2021/11/07 07:08:07;;;;;;;25.05;2.42;;;;;;;;;;5093047;28;20054;-59
2021/11/07 07:10:35;;;;;;;48.85;3.38;;;;;;;;;;5096948;28;20070;-59
2021/11/07 07:15:33;;;;;;;43.33;4.05;;;;;;;;;;5091119;28;20166;-59
2021/11/07 07:26:30;;;;;;;23.10;3.22;;;;;;;;;;5094547;28;20130;-59
2021/11/07 07:28:50;;;;;;;37.20;4.88;;;;;;;;;;5086556;28;20509;-59
2021/11/07 07:33:58;;;;;;;34.30;3.07;;;;;;;;;;5098930;28;20465;-60
2021/11/07 07:36:24;;;;;;;30.58;2.53;;;;;;;;;;5093688;28;20298;-60
2021/11/07 07:38:49;;;;;;;37.42;4.15;;;;;;;;;;5093580;28;20035;-60
2021/11/07 07:41:15;;;;;;;36.33;3.10;;;;;;;;;;5095245;28;20020;-60
2021/11/07 07:43:40;;;;;;;23.33;2.28;;;;;;;;;;5093946;28;20472;-58
2021/11/07 07:46:11;;;;;;;39.97;4.13;;;;;;;;;;5089668;28;20035;-60
2021/11/07 07:48:42;;;;;;;30.52;3.75;;;;;;;;;;5091411;28;20469;-60
2021/11/07 07:51:10;;;;;;;30.90;4.68;;;;;;;;;;5092003;28;20032;-60
2021/11/07 07:53:36;;;;;;;39.08;4.10;;;;;;;;;;5094733;28;20027;-60
2021/11/07 07:56:02;;;;;;;25.73;5.15;;;;;;;;;;5092286;27;20024;-60
2021/11/07 07:58:27;;;;;;;29.65;3.95;;;;;;;;;;5092745;28;20517;-60
2021/11/07 08:00:56;;;;;;;29.35;2.80;;;;;;;;;;5091774;28;20126;-59
2021/11/07 08:03:21;;;;;;;31.98;4.18;;;;;;;;;;5094571;28;20050;-60
2021/11/07 08:05:47;;;;;;;31.63;3.50;;;;;;;;;;5084336;27;20110;-60
2021/11/07 08:08:13;;;;;;;50.33;3.60;;;;;;;;;;5109071;27;20573;-60
2021/11/07 08:10:39;;;;;;;47.65;3.70;;;;;;;;;;5104832;27;20035;-60
2021/11/07 08:13:05;;;;;;;32.65;3.95;;;;;;;;;;5104246;27;20042;-60
2021/11/07 08:15:31;;;;;;;34.50;3.92;;;;;;;;;;5094215;27;20028;-60
2021/11/07 08:17:57;;;;;;;37.10;4.32;;;;;;;;;;5093197;28;20035;-60
2021/11/07 08:20:23;;;;;;;22.73;2.85;;;;;;;;;;5091123;28;20028;-60
2021/11/07 08:22:49;;;;;;;47.40;4.32;;;;;;;;;;5076438;28;20026;-59
2021/11/07 08:25:20;;;;;;;29.52;2.75;;;;;;;;;;5094724;28;20031;-61
2021/11/07 08:27:47;;;;;;;27.20;2.85;;;;;;;;;;5093402;28;20030;-59
2021/11/07 08:30:15;;;;;;;34.03;3.05;;;;;;;;;;5079404;28;20092;-59
2021/11/07 08:32:41;;;;;;;22.25;3.65;;;;;;;;;;5091729;28;20126;-60
2021/11/07 08:35:08;;;;;;;38.25;3.75;;;;;;;;;;5089642;28;20032;-60
2021/11/07 08:37:40;;;;;;;42.55;3.47;;;;;;;;;;5087908;28;20114;-60
2021/11/07 08:40:08;;;;;;;26.42;2.75;;;;;;;;;;5090165;28;20024;-59
2021/11/07 08:42:48;;;;;;;43.67;3.25;;;;;;;;;;5094863;28;20033;-60
2021/11/07 09:01:45;;;;;;;34.85;3.10;;;;;;;;;;5090178;28;20030;-60
2021/11/07 09:04:40;;;;;;;46.50;3.65;;;;;;;;;;5096087;28;20127;-60
2021/11/07 09:07:16;;;;;;;26.38;5.20;;;;;;;;;;5093477;28;20039;-60
2021/11/07 09:09:43;;;;;;;22.05;2.63;;;;;;;;;;5072340;28;20101;-59
2021/11/07 09:12:09;;;;;;;31.48;2.53;;;;;;;;;;5069761;28;20035;-61
2021/11/07 09:14:37;;;;;;;29.02;3.42;;;;;;;;;;5073385;28;20029;-60
2021/11/07 09:17:06;;;;;;;36.55;3.45;;;;;;;;;;5078302;28;20035;-60
2021/11/07 09:19:34;;;;;;;27.05;2.85;;;;;;;;;;5076735;28;20027;-61
2021/11/07 09:22:13;;;;;;;27.00;3.50;;;;;;;;;;5078382;28;20407;-61
2021/11/07 09:24:45;;;;;;;27.48;3.45;;;;;;;;;;5075324;28;20029;-61
2021/11/07 09:30:06;;;;;;;25.08;2.50;;;;;;;;;;5074100;28;20112;-60
2021/11/07 09:40:07;;;;;;;27.92;2.33;;;;;;;;;;5078776;28;20028;-60
2021/11/07 09:45:13;;;;;;;24.65;2.95;;;;;;;;;;5077558;28;20386;-61
2021/11/07 09:47:42;;;;;;;35.97;4.65;;;;;;;;;;5083346;28;20080;-61
2021/11/07 09:50:12;;;;;;;29.83;3.85;;;;;;;;;;5076559;28;20419;-60
2021/11/07 09:52:41;;;;;;;40.88;3.67;;;;;;;;;;5076388;28;20032;-61
2021/11/07 09:55:08;;;;;;;29.83;3.42;;;;;;;;;;5078611;28;20133;-60
2021/11/07 09:57:37;;;;;;;24.15;2.72;;;;;;;;;;5074114;28;20050;-61
2021/11/07 10:00:09;;;;;;;27.27;2.95;;;;;;;;;;5075993;28;20141;-61
2021/11/07 10:02:35;;;;;;;25.05;3.20;;;;;;;;;;5077142;28;20105;-60
2021/11/07 10:05:02;;;;;;;24.35;3.60;;;;;;;;;;5075322;28;20028;-61
2021/11/07 10:07:33;;;;;;;25.58;2.72;;;;;;;;;;5077879;28;20040;-60
2021/11/07 10:10:02;;;;;;;24.20;2.70;;;;;;;;;;5099668;28;20130;-61
2021/11/07 10:13:07;;;;;;;40.35;3.22;;;;;;;;;;5097495;28;20772;-60
2021/11/07 10:15:31;;;;;;;39.45;3.15;;;;;;;;;;5093478;28;20070;-61
2021/11/07 10:18:04;;;;;;;26.75;3.72;;;;;;;;;;5099016;28;20055;-60
2021/11/07 10:20:45;;;;;;;29.95;3.42;;;;;;;;;;5075853;28;20027;-62
2021/11/07 10:28:35;;;;;;;21.08;2.60;;;;;;;;;;5098392;28;20019;-60
2021/11/07 10:31:06;;;;;;;32.90;4.07;;;;;;;;;;5092000;28;20043;-61
2021/11/07 10:33:50;;;;;;;21.75;3.03;;;;;;;;;;5097050;28;20077;-60
2021/11/07 10:52:51;;;;;;;26.42;2.55;;;;;;;;;;5095743;28;20051;-61
2021/11/07 10:55:23;;;;;;;17.40;2.88;;;;;;;;;;5089997;28;20028;-60
2021/11/07 10:57:51;;;;;;;15.85;2.20;;;;;;;;;;5093304;28;20187;-61
2021/11/07 11:00:37;;;;;;;31.00;2.55;;;;;;;;;;5091370;28;20032;-61
2021/11/07 11:03:13;;;;;;;25.98;3.55;;;;;;;;;;5097881;27;20548;-61
2021/11/07 11:05:42;;;;;;;30.15;3.00;;;;;;;;;;5091037;28;20123;-61
2021/11/07 11:08:17;;;;;;;22.10;3.75;;;;;;;;;;5094307;28;20032;-61
2021/11/07 11:10:53;;;;;;;16.42;2.45;;;;;;;;;;5095324;28;20039;-62
2021/11/07 11:16:17;;;;;;;25.30;2.47;;;;;;;;;;5089842;28;20028;-61
2021/11/07 11:21:51;;;;;;;25.42;2.78;;;;;;;;;;5094510;28;20138;-61
2021/11/07 11:24:46;;;;;;;33.42;3.25;;;;;;;;;;5091871;28;20243;-61
2021/11/07 11:32:33;;;;;;;30.88;3.28;;;;;;;;;;5093545;28;20063;-61
2021/11/07 11:35:18;;;;;;;33.10;4.60;;;;;;;;;;5090574;28;20031;-61
2021/11/07 11:40:30;;;;;;;22.67;2.92;;;;;;;;;;5094325;28;20038;-61
2021/11/07 11:43:04;;;;;;;20.30;2.40;;;;;;;;;;5092152;28;20039;-61
2021/11/07 11:45:36;;;;;;;25.67;2.97;;;;;;;;;;5085795;28;20051;-61
2021/11/07 11:50:54;;;;;;;22.98;2.08;;;;;;;;;;5093675;28;20024;-61
2021/11/07 12:00:58;;;;;;;28.20;3.25;;;;;;;;;;5089951;28;20413;-60
2021/11/07 12:04:12;;;;;;;24.77;2.65;;;;;;;;;;5091336;28;20024;-60
2021/11/07 12:15:13;;;;;;;32.70;3.20;;;;;;;;;;5091640;28;20421;-60
2021/11/07 12:17:41;;;;;;;23.80;2.33;;;;;;;;;;5092834;28;20073;-60
2021/11/07 12:20:30;;;;;;;31.63;3.97;;;;;;;;;;5089405;28;20027;-60
2021/11/07 12:23:15;;;;;;;20.60;3.38;;;;;;;;;;5091254;28;20487;-61
2021/11/07 12:25:42;;;;;;;24.10;2.60;;;;;;;;;;5092677;28;20047;-61
2021/11/07 12:28:07;;;;;;;19.88;2.20;;;;;;;;;;5091322;28;20067;-61
2021/11/07 12:30:33;;;;;;;26.52;2.65;;;;;;;;;;5089878;28;20051;-61
2021/11/07 12:33:04;;;;;;;28.98;2.83;;;;;;;;;;5094280;28;20030;-62
2021/11/07 12:35:41;;;;;;;21.70;3.30;;;;;;;;;;5097161;28;20055;-61
2021/11/07 12:41:06;;;;;;;19.15;3.17;;;;;;;;;;5090004;28;20046;-60
2021/11/07 12:43:52;;;;;;;23.20;2.63;;;;;;;;;;5069550;28;20490;-60
2021/11/07 12:46:55;;;;;;;22.58;2.17;;;;;;;;;;5091188;28;20085;-60
2021/11/07 12:49:27;;;;;;;22.15;2.53;;;;;;;;;;5092998;28;20044;-59
2021/11/07 12:51:58;;;;;;;29.30;3.80;;;;;;;;;;5094300;28;20436;-61
2021/11/07 12:54:24;;;;;;;21.77;3.13;;;;;;;;;;5099481;28;20059;-60
2021/11/07 12:57:15;;;;;;;21.55;2.22;;;;;;;;;;5099665;28;20513;-60
2021/11/07 12:59:51;;;;;;;24.75;2.75;;;;;;;;;;5095504;28;20080;-60
2021/11/07 13:02:32;;;;;;;24.77;3.15;;;;;;;;;;5092651;28;20390;-61
2021/11/07 13:05:52;;;;;;;22.88;3.17;;;;;;;;;;5094137;28;20023;-60
2021/11/07 13:08:00;;;;;;;21.08;2.08;;;;;;;;;;5091382;28;20038;-61
2021/11/07 13:13:47;;;;;;;28.70;3.63;;;;;;;;;;5063730;28;20429;-61
2021/11/07 13:19:18;;;;;;;16.23;2.22;;;;;;;;;;5092822;28;20034;-60
2021/11/07 13:22:02;;;;;;;18.70;2.03;;;;;;;;;;5093229;28;20055;-59
2021/11/07 13:27:27;;;;;;;17.85;2.05;;;;;;;;;;5083733;28;20055;-59
2021/11/07 13:34:55;;;;;;;22.02;2.90;;;;;;;;;;5100007;27;20114;-61
2021/11/07 13:37:37;;;;;;;19.70;2.22;;;;;;;;;;5096514;28;20027;-59
2021/11/07 13:40:15;;;;;;;10.43;1.48;;;;;;;;;;5089475;28;20038;-58
2021/11/07 13:42:43;;;;;;;25.73;3.17;;;;;;;;;;5094832;28;20024;-60
2021/11/07 13:45:17;;;;;;;17.67;2.33;;;;;;;;;;5089399;28;20498;-59
2021/11/07 13:47:43;;;;;;;17.73;2.03;;;;;;;;;;5094014;28;20036;-59
2021/11/07 13:50:14;;;;;;;12.93;2.55;;;;;;;;;;5097540;28;20043;-59
2021/11/07 13:52:43;;;;;;;21.42;2.40;;;;;;;;;;5099440;28;20379;-59
2021/11/07 13:55:28;;;;;;;21.30;2.53;;;;;;;;;;5095602;28;20032;-59
2021/11/07 13:57:55;;;;;;;19.02;1.88;;;;;;;;;;5091980;28;20011;-60
2021/11/07 14:00:26;;;;;;;13.07;2.28;;;;;;;;;;5075193;28;20316;-59
2021/11/07 14:02:54;;;;;;;16.55;2.95;;;;;;;;;;5097243;28;20464;-60
2021/11/07 14:05:21;;;;;;;20.30;2.83;;;;;;;;;;5094108;28;20027;-60
2021/11/07 14:08:03;;;;;;;24.98;4.38;;;;;;;;;;5099692;28;20043;-59
2021/11/07 14:10:31;;;;;;;17.10;3.05;;;;;;;;;;5097602;28;20032;-59
2021/11/07 14:12:58;;;;;;;20.77;2.58;;;;;;;;;;5099460;28;20055;-59
2021/11/07 14:15:32;;;;;;;18.73;2.47;;;;;;;;;;5102429;28;20081;-59
2021/11/07 14:18:24;;;;;;;26.25;3.03;;;;;;;;;;5104501;27;20019;-59
2021/11/07 14:20:51;;;;;;;20.35;2.65;;;;;;;;;;5100894;27;20023;-59
2021/11/07 14:23:39;;;;;;;21.77;2.20;;;;;;;;;;5097074;28;20039;-59
2021/11/07 14:26:26;;;;;;;26.60;4.13;;;;;;;;;;5095513;28;20624;-59
2021/11/07 14:29:10;;;;;;;24.60;2.40;;;;;;;;;;5101275;28;20479;-59
2021/11/07 14:34:49;;;;;;;24.70;3.28;;;;;;;;;;5063093;28;20101;-60
2021/11/07 14:39:45;;;;;;;22.00;3.25;;;;;;;;;;5096519;28;20036;-59
2021/11/07 14:47:23;;;;;;;14.52;2.30;;;;;;;;;;5096290;28;20063;-59
2021/11/07 14:53:27;;;;;;;18.50;2.60;;;;;;;;;;5073592;28;20067;-60
2021/11/07 14:56:26;;;;;;;22.70;3.13;;;;;;;;;;5097391;28;20031;-60
2021/11/07 15:01:53;;;;;;;15.90;2.55;;;;;;;;;;5097636;28;20046;-59
2021/11/07 15:04:26;;;;;;;20.60;2.30;;;;;;;;;;5094576;28;20024;-59
2021/11/07 15:06:57;;;;;;;21.30;3.03;;;;;;;;;;5097193;28;20024;-59
2021/11/07 15:09:29;;;;;;;17.27;3.15;;;;;;;;;;5076789;28;20259;-59
2021/11/07 15:16:12;;;;;;;13.32;2.72;;;;;;;;;;5089549;28;20259;-59
2021/11/07 15:18:27;;;;;;;25.15;3.08;;;;;;;;;;5088639;27;20044;-59
2021/11/07 15:23:38;;;;;;;19.77;2.75;;;;;;;;;;5092948;28;20043;-59
2021/11/07 15:26:31;;;;;;;21.52;3.28;;;;;;;;;;5092224;28;20056;-59
2021/11/07 15:29:02;;;;;;;22.50;3.05;;;;;;;;;;5092692;28;20028;-58
2021/11/07 15:31:32;;;;;;;18.73;3.35;;;;;;;;;;5091388;28;20031;-59
2021/11/07 15:34:01;;;;;;;19.67;3.30;;;;;;;;;;5096245;28;20068;-58
2021/11/07 15:36:39;;;;;;;18.65;2.50;;;;;;;;;;5094744;28;20028;-59
2021/11/07 15:39:10;;;;;;;19.88;2.65;;;;;;;;;;5093333;28;20034;-59
2021/11/07 15:41:36;;;;;;;14.82;2.67;;;;;;;;;;5095033;28;20513;-59
2021/11/07 15:44:06;;;;;;;19.40;3.05;;;;;;;;;;5091907;28;20027;-59
2021/11/07 15:46:36;;;;;;;12.05;2.30;;;;;;;;;;5099604;28;20090;-59
2021/11/07 15:49:02;;;;;;;21.38;2.88;;;;;;;;;;5097829;28;20032;-58
2021/11/07 15:52:32;;;;;;;13.00;2.95;;;;;;;;;;5098357;28;20040;-58
2021/11/07 15:54:28;;;;;;;25.42;2.97;;;;;;;;;;5076197;28;20125;-59
2021/11/07 16:02:00;;;;;;;13.63;2.70;;;;;;;;;;5096807;28;20036;-58
2021/11/07 16:09:36;;;;;;;27.15;4.63;;;;;;;;;;5094699;28;20537;-59
2021/11/07 16:12:26;;;;;;;22.02;3.58;;;;;;;;;;5096293;28;20050;-58
2021/11/07 16:15:15;;;;;;;21.20;3.50;;;;;;;;;;5092189;28;20051;-59
2021/11/07 16:17:44;;;;;;;32.88;4.82;;;;;;;;;;5096288;28;20031;-58
2021/11/07 16:20:14;;;;;;;23.65;4.07;;;;;;;;;;5092842;28;20038;-59
2021/11/07 16:22:44;;;;;;;22.70;4.50;;;;;;;;;;5090108;28;20023;-59
2021/11/07 16:25:10;;;;;;;28.70;4.80;;;;;;;;;;5093449;28;20036;-58
2021/11/07 16:27:36;;;;;;;19.38;4.95;;;;;;;;;;5078313;28;20034;-59
2021/11/07 16:30:04;;;;;;;27.90;4.65;;;;;;;;;;5095793;28;20489;-58
2021/11/07 16:32:45;;;;;;;25.77;5.45;;;;;;;;;;5094841;28;20427;-59
2021/11/07 16:35:14;;;;;;;19.65;4.63;;;;;;;;;;5079188;28;20027;-59
2021/11/07 16:37:52;;;;;;;25.80;4.47;;;;;;;;;;5094961;28;20091;-59
2021/11/07 16:42:49;;;;;;;30.98;5.68;;;;;;;;;;5090248;28;20119;-59
2021/11/07 16:45:16;;;;;;;21.55;5.07;;;;;;;;;;5093757;28;20115;-59
2021/11/07 16:47:46;;;;;;;23.35;4.95;;;;;;;;;;5090748;28;20088;-59
2021/11/07 16:50:14;;;;;;;25.10;6.15;;;;;;;;;;5093901;28;20024;-59
2021/11/07 16:52:44;;;;;;;35.10;6.75;;;;;;;;;;5090898;28;20028;-59
2021/11/07 16:55:12;;;;;;;25.88;6.57;;;;;;;;;;5090989;28;20177;-60
2021/11/07 16:57:39;;;;;;;33.22;6.85;;;;;;;;;;5091880;28;20035;-59
2021/11/07 17:05:11;;;;;;;28.42;8.10;;;;;;;;;;5092211;28;20486;-59
2021/11/07 17:10:05;;;;;;;28.23;7.65;;;;;;;;;;5092019;28;20060;-59
2021/11/07 17:12:34;;;;;;;27.73;7.82;;;;;;;;;;5092662;28;20402;-59
2021/11/07 17:15:13;;;;;;;24.23;7.80;;;;;;;;;;5093614;28;20483;-59
2021/11/07 17:22:53;;;;;;;30.85;9.07;;;;;;;;;;5092312;28;20077;-59
2021/11/07 17:30:35;;;;;;;41.55;10.43;;;;;;;;;;5074515;28;20442;-59
2021/11/07 17:33:08;;;;;;;50.55;11.38;;;;;;;;;;5091670;28;20024;-59
2021/11/07 17:35:42;;;;;;;30.15;10.02;;;;;;;;;;5076381;28;20508;-59
2021/11/07 17:38:28;;;;;;;37.53;10.45;;;;;;;;;;5093230;28;20085;-59
2021/11/07 17:41:07;;;;;;;31.52;10.98;;;;;;;;;;5101890;28;20115;-59
2021/11/07 17:54:33;;;;;;;54.17;17.42;;;;;;;;;;5092757;28;20072;-59
2021/11/07 17:57:02;;;;;;;53.17;16.90;;;;;;;;;;5093230;28;20047;-59
2021/11/07 17:59:28;;;;;;;55.92;18.70;;;;;;;;;;5094558;28;20036;-59
2021/11/07 18:01:54;;;;;;;50.50;19.50;;;;;;;;;;5096530;28;20036;-59
2021/11/07 18:04:21;;;;;;;49.63;19.65;;;;;;;;;;5097948;28;20059;-59
2021/11/07 18:06:52;;;;;;;50.85;20.40;;;;;;;;;;5090031;28;20027;-58
2021/11/07 18:09:23;;;;;;;54.22;21.58;;;;;;;;;;5095432;28;20048;-59
2021/11/07 18:11:49;;;;;;;64.35;22.30;;;;;;;;;;5091040;28;20063;-59
2021/11/07 18:14:15;;;;;;;68.38;22.77;;;;;;;;;;5086226;28;20051;-59